sensor_id;sensor_type;location;lat;lon;timestamp;temperature;humidity
27781;DHT22;15167;1.318;103.762;2022-08-01T00:01:50;27.90;99.90
27781;DHT22;15167;1.318;103.762;2022-08-01T00:04:16;28.00;99.90
27781;DHT22;15167;1.318;103.762;2022-08-01T00:06:42;28.00;99.90
27781;DHT22;15167;1.318;103.762;2022-08-01T00:09:08;28.10;99.90
27781;DHT22;15167;1.318;103.762;2022-08-01T00:11:35;28.20;99.90
27781;DHT22;15167;1.318;103.762;2022-08-01T00:14:01;28.20;99.90
27781;DHT22;15167;1.318;103.762;2022-08-01T00:16:27;28.30;99.90
27781;DHT22;15167;1.318;103.762;2022-08-01T00:18:54;28.40;99.90
27781;DHT22;15167;1.318;103.762;2022-08-01T00:21:20;28.50;99.90
27781;DHT22;15167;1.318;103.762;2022-08-01T00:23:46;28.50;99.90
27781;DHT22;15167;1.318;103.762;2022-08-01T00:26:13;28.60;99.90
27781;DHT22;15167;1.318;103.762;2022-08-01T00:28:39;28.70;99.90
27781;DHT22;15167;1.318;103.762;2022-08-01T00:31:05;28.70;99.90
27781;DHT22;15167;1.318;103.762;2022-08-01T00:33:32;28.80;99.90
27781;DHT22;15167;1.318;103.762;2022-08-01T00:35:58;28.80;99.90
27781;DHT22;15167;1.318;103.762;2022-08-01T00:38:24;28.90;99.90
27781;DHT22;15167;1.318;103.762;2022-08-01T00:40:50;29.00;99.90
27781;DHT22;15167;1.318;103.762;2022-08-01T00:43:16;29.10;99.90
27781;DHT22;15167;1.318;103.762;2022-08-01T00:45:42;29.10;99.90
27781;DHT22;15167;1.318;103.762;2022-08-01T00:48:09;29.20;99.90
27781;DHT22;15167;1.318;103.762;2022-08-01T00:50:35;29.20;99.90
27781;DHT22;15167;1.318;103.762;2022-08-01T00:53:02;29.30;99.90
27781;DHT22;15167;1.318;103.762;2022-08-01T00:55:28;29.40;99.90
27781;DHT22;15167;1.318;103.762;2022-08-01T00:57:55;29.40;99.90
27781;DHT22;15167;1.318;103.762;2022-08-01T01:00:21;29.50;99.90
27781;DHT22;15167;1.318;103.762;2022-08-01T01:02:48;29.60;99.90
27781;DHT22;15167;1.318;103.762;2022-08-01T01:05:14;29.60;99.90
27781;DHT22;15167;1.318;103.762;2022-08-01T01:11:16;29.60;99.90
27781;DHT22;15167;1.318;103.762;2022-08-01T01:13:35;29.70;99.90
27781;DHT22;15167;1.318;103.762;2022-08-01T01:16:08;29.80;99.90
27781;DHT22;15167;1.318;103.762;2022-08-01T01:18:41;29.90;99.90
27781;DHT22;15167;1.318;103.762;2022-08-01T01:31:44;30.40;99.90
27781;DHT22;15167;1.318;103.762;2022-08-01T01:34:12;30.40;99.90
27781;DHT22;15167;1.318;103.762;2022-08-01T01:36:39;30.40;99.90
27781;DHT22;15167;1.318;103.762;2022-08-01T01:39:05;30.60;99.90
27781;DHT22;15167;1.318;103.762;2022-08-01T01:41:32;30.70;99.90
27781;DHT22;15167;1.318;103.762;2022-08-01T01:43:59;30.80;99.90
27781;DHT22;15167;1.318;103.762;2022-08-01T01:46:26;30.90;99.90
27781;DHT22;15167;1.318;103.762;2022-08-01T01:48:55;31.00;99.90
27781;DHT22;15167;1.318;103.762;2022-08-01T01:51:22;31.10;99.90
27781;DHT22;15167;1.318;103.762;2022-08-01T01:53:48;31.10;99.90
27781;DHT22;15167;1.318;103.762;2022-08-01T01:56:15;31.10;99.90
27781;DHT22;15167;1.318;103.762;2022-08-01T01:58:42;31.10;99.90
27781;DHT22;15167;1.318;103.762;2022-08-01T02:01:09;31.30;99.90
27781;DHT22;15167;1.318;103.762;2022-08-01T02:03:36;31.30;99.90
27781;DHT22;15167;1.318;103.762;2022-08-01T02:06:04;31.30;99.90
27781;DHT22;15167;1.318;103.762;2022-08-01T02:08:30;31.30;99.90
27781;DHT22;15167;1.318;103.762;2022-08-01T02:10:57;31.30;99.10
27781;DHT22;15167;1.318;103.762;2022-08-01T02:13:42;31.40;98.30
27781;DHT22;15167;1.318;103.762;2022-08-01T02:16:09;31.40;98.30
27781;DHT22;15167;1.318;103.762;2022-08-01T02:18:38;31.40;99.00
27781;DHT22;15167;1.318;103.762;2022-08-01T02:21:05;31.50;98.60
27781;DHT22;15167;1.318;103.762;2022-08-01T02:23:34;31.50;99.20
27781;DHT22;15167;1.318;103.762;2022-08-01T02:26:02;31.60;99.20
27781;DHT22;15167;1.318;103.762;2022-08-01T02:28:35;31.50;99.90
27781;DHT22;15167;1.318;103.762;2022-08-01T02:31:06;31.60;99.90
27781;DHT22;15167;1.318;103.762;2022-08-01T02:33:34;31.60;99.50
27781;DHT22;15167;1.318;103.762;2022-08-01T02:36:03;31.60;99.80
27781;DHT22;15167;1.318;103.762;2022-08-01T02:38:30;31.70;99.30
27781;DHT22;15167;1.318;103.762;2022-08-01T02:40:58;31.80;99.40
27781;DHT22;15167;1.318;103.762;2022-08-01T02:43:26;31.80;99.30
27781;DHT22;15167;1.318;103.762;2022-08-01T02:45:56;31.70;99.90
27781;DHT22;15167;1.318;103.762;2022-08-01T02:48:24;31.70;99.20
27781;DHT22;15167;1.318;103.762;2022-08-01T02:50:52;31.80;97.60
27781;DHT22;15167;1.318;103.762;2022-08-01T02:53:19;31.90;98.10
27781;DHT22;15167;1.318;103.762;2022-08-01T02:55:46;32.00;97.70
27781;DHT22;15167;1.318;103.762;2022-08-01T02:58:16;32.00;97.80
27781;DHT22;15167;1.318;103.762;2022-08-01T03:00:44;32.20;97.10
27781;DHT22;15167;1.318;103.762;2022-08-01T03:03:11;32.20;96.80
27781;DHT22;15167;1.318;103.762;2022-08-01T03:05:38;32.10;95.50
27781;DHT22;15167;1.318;103.762;2022-08-01T03:08:08;32.00;97.00
27781;DHT22;15167;1.318;103.762;2022-08-01T03:10:36;31.90;97.10
27781;DHT22;15167;1.318;103.762;2022-08-01T03:13:03;31.80;97.30
27781;DHT22;15167;1.318;103.762;2022-08-01T03:15:31;31.70;97.60
27781;DHT22;15167;1.318;103.762;2022-08-01T03:17:57;31.70;97.80
27781;DHT22;15167;1.318;103.762;2022-08-01T03:20:25;31.70;97.80
27781;DHT22;15167;1.318;103.762;2022-08-01T03:22:52;31.60;98.30
27781;DHT22;15167;1.318;103.762;2022-08-01T03:25:19;31.50;98.50
27781;DHT22;15167;1.318;103.762;2022-08-01T03:27:47;31.30;65.60
27781;DHT22;15167;1.318;103.762;2022-08-01T03:30:15;30.20;81.10
27781;DHT22;15167;1.318;103.762;2022-08-01T03:32:42;29.20;92.10
27781;DHT22;15167;1.318;103.762;2022-08-01T03:35:08;28.50;96.40
27781;DHT22;15167;1.318;103.762;2022-08-01T03:37:55;27.90;99.90
27781;DHT22;15167;1.318;103.762;2022-08-01T03:40:25;27.60;99.90
27781;DHT22;15167;1.318;103.762;2022-08-01T03:42:56;27.70;99.90
27781;DHT22;15167;1.318;103.762;2022-08-01T03:45:28;27.80;99.90
27781;DHT22;15167;1.318;103.762;2022-08-01T03:48:00;27.80;99.90
27781;DHT22;15167;1.318;103.762;2022-08-01T03:50:27;27.90;99.90
27781;DHT22;15167;1.318;103.762;2022-08-01T03:52:54;27.80;99.90
27781;DHT22;15167;1.318;103.762;2022-08-01T03:55:22;27.60;99.90
27781;DHT22;15167;1.318;103.762;2022-08-01T03:57:49;27.50;99.90
27781;DHT22;15167;1.318;103.762;2022-08-01T04:00:16;27.70;99.90
27781;DHT22;15167;1.318;103.762;2022-08-01T04:02:45;28.00;99.90
27781;DHT22;15167;1.318;103.762;2022-08-01T04:05:11;28.10;99.90
27781;DHT22;15167;1.318;103.762;2022-08-01T04:07:38;28.20;99.90
27781;DHT22;15167;1.318;103.762;2022-08-01T04:10:09;28.50;99.90
27781;DHT22;15167;1.318;103.762;2022-08-01T04:12:35;28.60;99.90
27781;DHT22;15167;1.318;103.762;2022-08-01T04:15:01;28.50;99.90
27781;DHT22;15167;1.318;103.762;2022-08-01T04:17:27;28.20;99.90
27781;DHT22;15167;1.318;103.762;2022-08-01T04:19:53;28.10;99.90
27781;DHT22;15167;1.318;103.762;2022-08-01T04:22:20;28.30;99.90
27781;DHT22;15167;1.318;103.762;2022-08-01T04:24:47;28.20;99.90
27781;DHT22;15167;1.318;103.762;2022-08-01T04:27:19;28.30;99.90
27781;DHT22;15167;1.318;103.762;2022-08-01T04:29:47;28.50;99.90
27781;DHT22;15167;1.318;103.762;2022-08-01T04:32:16;28.90;99.90
27781;DHT22;15167;1.318;103.762;2022-08-01T04:34:44;29.30;99.90
27781;DHT22;15167;1.318;103.762;2022-08-01T04:37:11;29.80;98.80
27781;DHT22;15167;1.318;103.762;2022-08-01T04:39:38;30.50;92.80
27781;DHT22;15167;1.318;103.762;2022-08-01T04:42:07;30.70;74.70
27781;DHT22;15167;1.318;103.762;2022-08-01T04:44:34;30.90;77.90
27781;DHT22;15167;1.318;103.762;2022-08-01T04:47:01;31.30;77.60
27781;DHT22;15167;1.318;103.762;2022-08-01T04:49:32;31.80;71.70
27781;DHT22;15167;1.318;103.762;2022-08-01T04:51:58;32.00;65.80
27781;DHT22;15167;1.318;103.762;2022-08-01T04:54:29;32.10;62.80
27781;DHT22;15167;1.318;103.762;2022-08-01T04:56:55;32.10;67.60
27781;DHT22;15167;1.318;103.762;2022-08-01T04:59:28;32.20;68.30
27781;DHT22;15167;1.318;103.762;2022-08-01T05:02:14;32.20;72.60
27781;DHT22;15167;1.318;103.762;2022-08-01T05:04:41;31.90;82.70
27781;DHT22;15167;1.318;103.762;2022-08-01T05:07:07;32.00;84.60
27781;DHT22;15167;1.318;103.762;2022-08-01T05:09:34;32.00;84.20
27781;DHT22;15167;1.318;103.762;2022-08-01T05:12:02;32.00;80.50
27781;DHT22;15167;1.318;103.762;2022-08-01T05:14:28;32.00;65.80
27781;DHT22;15167;1.318;103.762;2022-08-01T05:17:01;32.00;59.90
27781;DHT22;15167;1.318;103.762;2022-08-01T05:19:29;32.10;75.70
27781;DHT22;15167;1.318;103.762;2022-08-01T05:21:57;32.20;90.60
27781;DHT22;15167;1.318;103.762;2022-08-01T05:24:24;32.20;92.20
27781;DHT22;15167;1.318;103.762;2022-08-01T05:26:50;32.10;94.40
27781;DHT22;15167;1.318;103.762;2022-08-01T05:29:16;31.90;95.90
27781;DHT22;15167;1.318;103.762;2022-08-01T05:31:45;31.80;97.00
27781;DHT22;15167;1.318;103.762;2022-08-01T05:34:11;31.70;97.30
27781;DHT22;15167;1.318;103.762;2022-08-01T05:36:38;31.70;98.50
27781;DHT22;15167;1.318;103.762;2022-08-01T05:39:04;31.50;99.10
27781;DHT22;15167;1.318;103.762;2022-08-01T05:41:30;31.40;99.90
27781;DHT22;15167;1.318;103.762;2022-08-01T05:43:56;31.30;99.90
27781;DHT22;15167;1.318;103.762;2022-08-01T05:46:23;31.10;99.90
27781;DHT22;15167;1.318;103.762;2022-08-01T05:48:49;31.10;99.90
27781;DHT22;15167;1.318;103.762;2022-08-01T05:51:15;31.00;99.90
27781;DHT22;15167;1.318;103.762;2022-08-01T05:53:41;30.90;99.90
27781;DHT22;15167;1.318;103.762;2022-08-01T05:56:07;30.80;99.90
27781;DHT22;15167;1.318;103.762;2022-08-01T05:58:33;30.70;99.90
27781;DHT22;15167;1.318;103.762;2022-08-01T06:00:59;30.70;99.90
27781;DHT22;15167;1.318;103.762;2022-08-01T06:03:25;30.60;99.90
27781;DHT22;15167;1.318;103.762;2022-08-01T06:05:52;30.70;99.90
27781;DHT22;15167;1.318;103.762;2022-08-01T06:08:18;30.70;99.90
27781;DHT22;15167;1.318;103.762;2022-08-01T06:10:44;30.70;99.90
27781;DHT22;15167;1.318;103.762;2022-08-01T06:13:11;30.60;99.90
27781;DHT22;15167;1.318;103.762;2022-08-01T06:15:37;30.60;99.90
27781;DHT22;15167;1.318;103.762;2022-08-01T06:18:03;30.50;99.90
27781;DHT22;15167;1.318;103.762;2022-08-01T06:20:30;30.50;99.90
27781;DHT22;15167;1.318;103.762;2022-08-01T06:22:56;30.50;99.90
27781;DHT22;15167;1.318;103.762;2022-08-01T06:25:22;30.50;99.90
27781;DHT22;15167;1.318;103.762;2022-08-01T06:27:49;30.50;99.90
27781;DHT22;15167;1.318;103.762;2022-08-01T06:30:15;30.50;99.90
27781;DHT22;15167;1.318;103.762;2022-08-01T06:32:41;30.50;99.90
27781;DHT22;15167;1.318;103.762;2022-08-01T06:35:07;30.50;99.90
27781;DHT22;15167;1.318;103.762;2022-08-01T06:37:34;30.50;99.80
27781;DHT22;15167;1.318;103.762;2022-08-01T06:40:01;30.50;99.90
27781;DHT22;15167;1.318;103.762;2022-08-01T06:42:27;30.60;99.90
27781;DHT22;15167;1.318;103.762;2022-08-01T06:44:53;30.50;99.90
27781;DHT22;15167;1.318;103.762;2022-08-01T06:47:19;30.50;99.90
27781;DHT22;15167;1.318;103.762;2022-08-01T06:49:45;30.50;99.90
27781;DHT22;15167;1.318;103.762;2022-08-01T06:52:12;30.50;99.90
27781;DHT22;15167;1.318;103.762;2022-08-01T06:54:38;30.60;99.90
27781;DHT22;15167;1.318;103.762;2022-08-01T06:57:04;30.60;99.40
27781;DHT22;15167;1.318;103.762;2022-08-01T06:59:31;30.60;99.30
27781;DHT22;15167;1.318;103.762;2022-08-01T07:01:57;30.60;99.70
27781;DHT22;15167;1.318;103.762;2022-08-01T07:04:23;30.50;99.90
27781;DHT22;15167;1.318;103.762;2022-08-01T07:06:49;30.40;99.90
27781;DHT22;15167;1.318;103.762;2022-08-01T07:09:15;30.50;99.80
27781;DHT22;15167;1.318;103.762;2022-08-01T07:11:41;30.40;99.90
27781;DHT22;15167;1.318;103.762;2022-08-01T07:14:07;30.30;99.90
27781;DHT22;15167;1.318;103.762;2022-08-01T07:16:33;30.30;99.90
27781;DHT22;15167;1.318;103.762;2022-08-01T07:19:00;30.30;99.90
27781;DHT22;15167;1.318;103.762;2022-08-01T07:21:26;30.40;99.90
27781;DHT22;15167;1.318;103.762;2022-08-01T07:23:54;30.50;99.90
27781;DHT22;15167;1.318;103.762;2022-08-01T07:26:20;30.50;99.90
27781;DHT22;15167;1.318;103.762;2022-08-01T07:28:46;30.60;99.90
27781;DHT22;15167;1.318;103.762;2022-08-01T07:31:12;30.70;99.90
27781;DHT22;15167;1.318;103.762;2022-08-01T07:33:38;30.70;99.90
27781;DHT22;15167;1.318;103.762;2022-08-01T07:36:04;30.70;99.90
27781;DHT22;15167;1.318;103.762;2022-08-01T07:38:31;30.80;99.90
27781;DHT22;15167;1.318;103.762;2022-08-01T07:40:57;30.80;99.90
27781;DHT22;15167;1.318;103.762;2022-08-01T07:43:23;30.80;99.90
27781;DHT22;15167;1.318;103.762;2022-08-01T07:45:49;31.10;99.90
27781;DHT22;15167;1.318;103.762;2022-08-01T07:48:16;31.40;99.00
27781;DHT22;15167;1.318;103.762;2022-08-01T07:50:42;31.80;97.40
27781;DHT22;15167;1.318;103.762;2022-08-01T07:53:08;32.20;94.00
27781;DHT22;15167;1.318;103.762;2022-08-01T07:55:37;32.40;91.10
27781;DHT22;15167;1.318;103.762;2022-08-01T07:58:04;32.60;91.50
27781;DHT22;15167;1.318;103.762;2022-08-01T08:00:30;32.80;91.80
27781;DHT22;15167;1.318;103.762;2022-08-01T08:02:56;32.90;92.50
27781;DHT22;15167;1.318;103.762;2022-08-01T08:05:27;32.90;87.60
27781;DHT22;15167;1.318;103.762;2022-08-01T08:07:53;33.00;89.10
27781;DHT22;15167;1.318;103.762;2022-08-01T08:10:19;32.90;90.10
27781;DHT22;15167;1.318;103.762;2022-08-01T08:12:46;32.80;89.40
27781;DHT22;15167;1.318;103.762;2022-08-01T08:15:12;32.60;90.30
27781;DHT22;15167;1.318;103.762;2022-08-01T08:17:38;32.60;91.00
27781;DHT22;15167;1.318;103.762;2022-08-01T08:20:05;32.70;90.40
27781;DHT22;15167;1.318;103.762;2022-08-01T08:22:32;32.60;90.20
27781;DHT22;15167;1.318;103.762;2022-08-01T08:24:59;32.80;89.70
27781;DHT22;15167;1.318;103.762;2022-08-01T08:27:25;33.00;85.50
27781;DHT22;15167;1.318;103.762;2022-08-01T08:29:51;33.10;81.70
27781;DHT22;15167;1.318;103.762;2022-08-01T08:32:17;33.20;78.00
27781;DHT22;15167;1.318;103.762;2022-08-01T08:34:44;33.30;73.60
27781;DHT22;15167;1.318;103.762;2022-08-01T08:37:10;33.20;74.90
27781;DHT22;15167;1.318;103.762;2022-08-01T08:39:36;33.20;76.90
27781;DHT22;15167;1.318;103.762;2022-08-01T08:42:06;33.30;70.00
27781;DHT22;15167;1.318;103.762;2022-08-01T08:44:32;33.30;69.50
27781;DHT22;15167;1.318;103.762;2022-08-01T08:47:00;33.30;70.30
27781;DHT22;15167;1.318;103.762;2022-08-01T08:49:27;33.30;68.30
27781;DHT22;15167;1.318;103.762;2022-08-01T08:51:53;33.30;66.80
27781;DHT22;15167;1.318;103.762;2022-08-01T08:54:23;33.30;64.70
27781;DHT22;15167;1.318;103.762;2022-08-01T08:56:53;33.40;64.90
27781;DHT22;15167;1.318;103.762;2022-08-01T08:59:19;33.40;66.50
27781;DHT22;15167;1.318;103.762;2022-08-01T09:01:46;33.40;61.40
27781;DHT22;15167;1.318;103.762;2022-08-01T09:04:13;33.20;57.10
27781;DHT22;15167;1.318;103.762;2022-08-01T09:06:39;33.30;55.00
27781;DHT22;15167;1.318;103.762;2022-08-01T09:09:07;33.10;58.10
27781;DHT22;15167;1.318;103.762;2022-08-01T09:11:33;33.00;58.50
27781;DHT22;15167;1.318;103.762;2022-08-01T09:16:35;32.80;66.50
27781;DHT22;15167;1.318;103.762;2022-08-01T09:19:12;32.70;67.80
27781;DHT22;15167;1.318;103.762;2022-08-01T09:21:39;32.40;56.80
27781;DHT22;15167;1.318;103.762;2022-08-01T09:24:15;32.20;53.60
27781;DHT22;15167;1.318;103.762;2022-08-01T09:26:44;32.20;51.80
27781;DHT22;15167;1.318;103.762;2022-08-01T09:29:16;32.10;47.40
27781;DHT22;15167;1.318;103.762;2022-08-01T09:31:44;32.10;45.80
27781;DHT22;15167;1.318;103.762;2022-08-01T09:34:10;32.20;49.10
27781;DHT22;15167;1.318;103.762;2022-08-01T09:37:09;32.40;44.40
27781;DHT22;15167;1.318;103.762;2022-08-01T09:39:30;32.80;40.20
27781;DHT22;15167;1.318;103.762;2022-08-01T09:41:57;33.20;34.50
27781;DHT22;15167;1.318;103.762;2022-08-01T09:44:43;33.50;30.90
27781;DHT22;15167;1.318;103.762;2022-08-01T09:47:10;33.70;25.20
27781;DHT22;15167;1.318;103.762;2022-08-01T09:49:37;33.80;26.00
27781;DHT22;15167;1.318;103.762;2022-08-01T09:52:16;33.70;26.40
27781;DHT22;15167;1.318;103.762;2022-08-01T09:54:51;33.80;23.00
27781;DHT22;15167;1.318;103.762;2022-08-01T09:57:18;33.80;24.90
27781;DHT22;15167;1.318;103.762;2022-08-01T09:59:45;33.80;23.80
27781;DHT22;15167;1.318;103.762;2022-08-01T10:02:12;33.90;22.90
27781;DHT22;15167;1.318;103.762;2022-08-01T10:04:48;33.90;22.80
27781;DHT22;15167;1.318;103.762;2022-08-01T10:07:15;33.90;23.20
27781;DHT22;15167;1.318;103.762;2022-08-01T10:09:41;33.80;26.20
27781;DHT22;15167;1.318;103.762;2022-08-01T10:12:08;33.70;26.00
27781;DHT22;15167;1.318;103.762;2022-08-01T10:14:35;33.80;28.40
27781;DHT22;15167;1.318;103.762;2022-08-01T10:17:02;33.80;29.50
27781;DHT22;15167;1.318;103.762;2022-08-01T10:19:29;33.80;27.90
27781;DHT22;15167;1.318;103.762;2022-08-01T10:21:56;34.00;29.60
27781;DHT22;15167;1.318;103.762;2022-08-01T10:24:23;34.00;31.10
27781;DHT22;15167;1.318;103.762;2022-08-01T10:26:55;33.90;33.60
27781;DHT22;15167;1.318;103.762;2022-08-01T10:29:22;33.80;36.10
27781;DHT22;15167;1.318;103.762;2022-08-01T10:31:50;33.80;38.50
27781;DHT22;15167;1.318;103.762;2022-08-01T10:34:17;33.80;41.00
27781;DHT22;15167;1.318;103.762;2022-08-01T10:36:48;33.60;45.10
27781;DHT22;15167;1.318;103.762;2022-08-01T10:39:14;33.60;47.20
27781;DHT22;15167;1.318;103.762;2022-08-01T10:41:41;33.60;47.20
27781;DHT22;15167;1.318;103.762;2022-08-01T10:44:07;33.50;49.50
27781;DHT22;15167;1.318;103.762;2022-08-01T10:46:34;33.20;51.30
27781;DHT22;15167;1.318;103.762;2022-08-01T10:49:04;32.80;58.40
27781;DHT22;15167;1.318;103.762;2022-08-01T10:51:34;32.50;63.10
27781;DHT22;15167;1.318;103.762;2022-08-01T10:54:02;32.30;69.30
27781;DHT22;15167;1.318;103.762;2022-08-01T10:59:09;31.90;77.70
27781;DHT22;15167;1.318;103.762;2022-08-01T11:01:35;31.80;82.30
27781;DHT22;15167;1.318;103.762;2022-08-01T11:04:11;31.60;86.60
27781;DHT22;15167;1.318;103.762;2022-08-01T11:07:20;31.60;90.00
27781;DHT22;15167;1.318;103.762;2022-08-01T11:09:28;31.50;91.00
27781;DHT22;15167;1.318;103.762;2022-08-01T11:12:02;31.40;92.30
27781;DHT22;15167;1.318;103.762;2022-08-01T11:14:31;31.30;93.30
27781;DHT22;15167;1.318;103.762;2022-08-01T11:17:16;31.20;94.60
27781;DHT22;15167;1.318;103.762;2022-08-01T11:22:27;30.90;97.00
27781;DHT22;15167;1.318;103.762;2022-08-01T11:24:54;30.90;97.10
27781;DHT22;15167;1.318;103.762;2022-08-01T11:27:23;30.90;97.50
27781;DHT22;15167;1.318;103.762;2022-08-01T11:30:32;30.80;98.10
27781;DHT22;15167;1.318;103.762;2022-08-01T11:32:45;30.70;98.70
27781;DHT22;15167;1.318;103.762;2022-08-01T11:35:12;30.70;99.20
27781;DHT22;15167;1.318;103.762;2022-08-01T11:37:38;30.60;99.70
27781;DHT22;15167;1.318;103.762;2022-08-01T11:40:17;30.60;99.70
27781;DHT22;15167;1.318;103.762;2022-08-01T11:42:44;30.70;99.90
27781;DHT22;15167;1.318;103.762;2022-08-01T11:45:10;30.60;99.90
27781;DHT22;15167;1.318;103.762;2022-08-01T11:50:29;30.40;99.90
27781;DHT22;15167;1.318;103.762;2022-08-01T11:52:58;30.40;99.90
27781;DHT22;15167;1.318;103.762;2022-08-01T11:55:24;30.40;99.90
27781;DHT22;15167;1.318;103.762;2022-08-01T11:57:58;30.40;99.90
27781;DHT22;15167;1.318;103.762;2022-08-01T12:00:24;30.30;99.90
27781;DHT22;15167;1.318;103.762;2022-08-01T12:03:01;30.30;99.90
27781;DHT22;15167;1.318;103.762;2022-08-01T12:05:28;30.30;99.90
27781;DHT22;15167;1.318;103.762;2022-08-01T12:07:55;30.30;99.90
27781;DHT22;15167;1.318;103.762;2022-08-01T12:10:26;30.30;99.90
27781;DHT22;15167;1.318;103.762;2022-08-01T12:12:54;30.30;99.90
27781;DHT22;15167;1.318;103.762;2022-08-01T12:15:22;30.30;99.90
27781;DHT22;15167;1.318;103.762;2022-08-01T12:17:50;30.30;99.90
27781;DHT22;15167;1.318;103.762;2022-08-01T12:20:20;30.30;99.90
27781;DHT22;15167;1.318;103.762;2022-08-01T12:22:46;30.20;99.90
27781;DHT22;15167;1.318;103.762;2022-08-01T12:25:13;30.10;99.90
27781;DHT22;15167;1.318;103.762;2022-08-01T12:27:40;30.20;99.90
27781;DHT22;15167;1.318;103.762;2022-08-01T12:30:07;30.20;99.90
27781;DHT22;15167;1.318;103.762;2022-08-01T12:32:35;30.20;99.90
27781;DHT22;15167;1.318;103.762;2022-08-01T12:35:04;30.20;99.90
27781;DHT22;15167;1.318;103.762;2022-08-01T12:37:41;30.10;99.90
27781;DHT22;15167;1.318;103.762;2022-08-01T12:40:10;30.00;99.90
27781;DHT22;15167;1.318;103.762;2022-08-01T12:42:39;30.00;99.90
27781;DHT22;15167;1.318;103.762;2022-08-01T12:45:07;30.00;99.90
27781;DHT22;15167;1.318;103.762;2022-08-01T12:47:35;30.00;99.90
27781;DHT22;15167;1.318;103.762;2022-08-01T12:50:02;29.90;99.90
27781;DHT22;15167;1.318;103.762;2022-08-01T12:52:29;29.90;99.90
27781;DHT22;15167;1.318;103.762;2022-08-01T12:55:00;29.80;99.90
27781;DHT22;15167;1.318;103.762;2022-08-01T12:57:26;29.70;99.90
27781;DHT22;15167;1.318;103.762;2022-08-01T12:59:53;29.70;99.90
27781;DHT22;15167;1.318;103.762;2022-08-01T13:02:19;29.80;99.90
27781;DHT22;15167;1.318;103.762;2022-08-01T13:04:49;29.80;99.90
27781;DHT22;15167;1.318;103.762;2022-08-01T13:07:15;29.80;99.90
27781;DHT22;15167;1.318;103.762;2022-08-01T13:09:51;29.70;99.90
27781;DHT22;15167;1.318;103.762;2022-08-01T13:12:17;29.70;99.90
27781;DHT22;15167;1.318;103.762;2022-08-01T13:14:43;29.70;99.90
27781;DHT22;15167;1.318;103.762;2022-08-01T13:17:09;29.60;99.90
27781;DHT22;15167;1.318;103.762;2022-08-01T13:19:45;29.60;99.90
27781;DHT22;15167;1.318;103.762;2022-08-01T13:22:12;29.60;99.90
27781;DHT22;15167;1.318;103.762;2022-08-01T13:24:38;29.60;99.90
27781;DHT22;15167;1.318;103.762;2022-08-01T13:27:04;29.60;99.90
27781;DHT22;15167;1.318;103.762;2022-08-01T13:29:37;29.60;99.90
27781;DHT22;15167;1.318;103.762;2022-08-01T13:32:14;29.60;99.90
27781;DHT22;15167;1.318;103.762;2022-08-01T13:34:42;29.60;99.90
27781;DHT22;15167;1.318;103.762;2022-08-01T13:37:08;29.60;99.90
27781;DHT22;15167;1.318;103.762;2022-08-01T13:39:34;29.50;99.90
27781;DHT22;15167;1.318;103.762;2022-08-01T13:42:07;29.50;99.90
27781;DHT22;15167;1.318;103.762;2022-08-01T13:44:33;29.50;99.90
27781;DHT22;15167;1.318;103.762;2022-08-01T13:46:59;29.50;99.90
27781;DHT22;15167;1.318;103.762;2022-08-01T13:49:25;29.60;99.90
27781;DHT22;15167;1.318;103.762;2022-08-01T13:51:51;29.50;99.90
27781;DHT22;15167;1.318;103.762;2022-08-01T13:54:17;29.60;99.90
27781;DHT22;15167;1.318;103.762;2022-08-01T13:56:44;29.60;99.90
27781;DHT22;15167;1.318;103.762;2022-08-01T13:59:10;29.60;99.90
27781;DHT22;15167;1.318;103.762;2022-08-01T14:01:36;29.50;99.90
27781;DHT22;15167;1.318;103.762;2022-08-01T14:04:03;29.40;99.90
27781;DHT22;15167;1.318;103.762;2022-08-01T14:06:30;29.40;99.90
27781;DHT22;15167;1.318;103.762;2022-08-01T14:08:56;29.40;99.90
27781;DHT22;15167;1.318;103.762;2022-08-01T14:11:22;29.40;99.90
27781;DHT22;15167;1.318;103.762;2022-08-01T14:13:49;29.40;99.90
27781;DHT22;15167;1.318;103.762;2022-08-01T14:16:16;29.40;99.90
27781;DHT22;15167;1.318;103.762;2022-08-01T14:18:42;29.40;99.90
27781;DHT22;15167;1.318;103.762;2022-08-01T14:21:08;29.40;99.90
27781;DHT22;15167;1.318;103.762;2022-08-01T14:23:34;29.40;99.90
27781;DHT22;15167;1.318;103.762;2022-08-01T14:26:00;29.40;99.90
27781;DHT22;15167;1.318;103.762;2022-08-01T14:28:26;29.30;99.90
27781;DHT22;15167;1.318;103.762;2022-08-01T14:30:54;29.30;99.90
27781;DHT22;15167;1.318;103.762;2022-08-01T14:33:21;29.30;99.90
27781;DHT22;15167;1.318;103.762;2022-08-01T14:35:48;29.30;99.90
27781;DHT22;15167;1.318;103.762;2022-08-01T14:38:14;29.30;99.90
27781;DHT22;15167;1.318;103.762;2022-08-01T14:40:40;29.30;99.90
27781;DHT22;15167;1.318;103.762;2022-08-01T14:43:06;29.30;99.90
27781;DHT22;15167;1.318;103.762;2022-08-01T14:45:32;29.30;99.90
27781;DHT22;15167;1.318;103.762;2022-08-01T14:47:58;29.20;99.90
27781;DHT22;15167;1.318;103.762;2022-08-01T14:50:25;29.20;99.90
27781;DHT22;15167;1.318;103.762;2022-08-01T14:52:53;29.20;99.90
27781;DHT22;15167;1.318;103.762;2022-08-01T14:55:19;29.20;99.90
27781;DHT22;15167;1.318;103.762;2022-08-01T14:57:49;29.20;99.90
27781;DHT22;15167;1.318;103.762;2022-08-01T15:00:15;29.10;99.90
27781;DHT22;15167;1.318;103.762;2022-08-01T15:02:41;29.20;99.90
27781;DHT22;15167;1.318;103.762;2022-08-01T15:05:08;29.20;99.90
27781;DHT22;15167;1.318;103.762;2022-08-01T15:07:35;29.20;99.90
27781;DHT22;15167;1.318;103.762;2022-08-01T15:10:03;29.20;99.90
27781;DHT22;15167;1.318;103.762;2022-08-01T15:12:29;29.10;99.90
27781;DHT22;15167;1.318;103.762;2022-08-01T15:14:55;29.10;99.90
27781;DHT22;15167;1.318;103.762;2022-08-01T15:17:22;29.00;99.90
27781;DHT22;15167;1.318;103.762;2022-08-01T15:19:50;29.00;99.90
27781;DHT22;15167;1.318;103.762;2022-08-01T15:22:17;29.10;99.90
27781;DHT22;15167;1.318;103.762;2022-08-01T15:24:43;29.10;99.90
27781;DHT22;15167;1.318;103.762;2022-08-01T15:27:09;29.10;99.90
27781;DHT22;15167;1.318;103.762;2022-08-01T15:29:36;29.10;99.90
27781;DHT22;15167;1.318;103.762;2022-08-01T15:32:03;29.10;99.90
27781;DHT22;15167;1.318;103.762;2022-08-01T15:34:30;29.00;99.90
27781;DHT22;15167;1.318;103.762;2022-08-01T15:36:56;29.00;99.90
27781;DHT22;15167;1.318;103.762;2022-08-01T15:39:23;29.00;99.90
27781;DHT22;15167;1.318;103.762;2022-08-01T15:41:49;29.10;99.90
27781;DHT22;15167;1.318;103.762;2022-08-01T15:44:15;29.00;99.90